Time;durP1;ratioP1;P1;durP2;ratioP2;P2;SDS_P1;SDS_P2;PMS_P1;PMS_P2;Temp;Humidity;BMP_temperature;BMP_pressure;BME280_temperature;BME280_humidity;BME280_pressure;Samples;Min_cycle;Max_cycle;Signal;HPM_P1;HPM_P2
2022/06/02 00:01:11;;;;;;;10.65;6.13;;;9.90;99.90;;;;;;5034858;28;20116;-67
2022/06/02 00:03:54;;;;;;;9.88;5.90;;;10.00;99.90;;;;;;5010460;28;20132;-67
2022/06/02 00:06:47;;;;;;;9.63;5.93;;;9.90;99.90;;;;;;5018743;28;20049;-68
2022/06/02 00:09:16;;;;;;;10.57;6.93;;;9.80;99.90;;;;;;4998116;28;20050;-68
2022/06/02 00:12:05;;;;;;;9.75;6.22;;;9.80;99.90;;;;;;5022331;28;20045;-67
2022/06/02 00:14:39;;;;;;;10.18;5.93;;;9.80;99.90;;;;;;4989634;28;20049;-67
2022/06/02 00:17:15;;;;;;;10.30;6.65;;;9.80;99.90;;;;;;5012935;28;20038;-67
2022/06/02 00:19:50;;;;;;;10.23;6.35;;;9.70;99.90;;;;;;5021531;28;20057;-67
2022/06/02 00:22:38;;;;;;;11.68;6.07;;;9.70;99.90;;;;;;5022899;28;20072;-67
2022/06/02 00:25:03;;;;;;;10.30;6.30;;;9.70;99.90;;;;;;5043610;28;20486;-67
2022/06/02 00:27:52;;;;;;;10.83;6.80;;;9.70;99.90;;;;;;5014707;28;20041;-68
2022/06/02 00:30:26;;;;;;;9.48;6.00;;;9.70;99.90;;;;;;5025043;28;20060;-67
2022/06/02 00:33:09;;;;;;;10.10;6.30;;;9.70;99.90;;;;;;5017419;28;20053;-68
2022/06/02 00:35:50;;;;;;;13.98;6.50;;;9.70;99.90;;;;;;5019468;28;20228;-68
2022/06/02 00:38:19;;;;;;;11.23;6.97;;;9.70;99.90;;;;;;5019626;28;20100;-67
2022/06/02 00:40:46;;;;;;;14.15;7.13;;;9.60;99.90;;;;;;5021369;28;20049;-67
2022/06/02 00:43:47;;;;;;;10.60;6.50;;;9.60;99.90;;;;;;5004972;28;20033;-67
2022/06/02 00:46:34;;;;;;;11.32;6.28;;;9.60;99.90;;;;;;5015479;28;20399;-67
2022/06/02 00:49:08;;;;;;;10.57;6.43;;;9.50;99.90;;;;;;5019216;28;20053;-67
2022/06/02 00:51:40;;;;;;;8.85;5.53;;;9.50;99.90;;;;;;5019789;28;20079;-67
2022/06/02 00:57:41;;;;;;;8.48;5.70;;;9.50;99.90;;;;;;5018091;28;20056;-67
2022/06/02 01:00:16;;;;;;;11.57;6.68;;;9.40;99.90;;;;;;5011928;28;20045;-67
2022/06/02 01:02:48;;;;;;;9.35;6.15;;;9.40;99.90;;;;;;5026565;28;20056;-67
2022/06/02 01:05:21;;;;;;;9.52;6.03;;;9.40;99.90;;;;;;5021621;28;20049;-67
2022/06/02 01:08:00;;;;;;;10.98;6.10;;;9.40;99.90;;;;;;5022819;28;20053;-67
2022/06/02 01:10:41;;;;;;;9.38;6.03;;;9.40;99.90;;;;;;5016921;28;20037;-67
2022/06/02 01:13:12;;;;;;;8.85;5.95;;;9.40;99.90;;;;;;5011301;28;20124;-67
2022/06/02 01:15:50;;;;;;;10.18;6.18;;;9.40;99.90;;;;;;5018509;28;20061;-67
2022/06/02 01:18:24;;;;;;;8.80;5.95;;;9.40;99.90;;;;;;5022548;28;20387;-67
2022/06/02 01:20:52;;;;;;;8.30;5.80;;;9.30;99.90;;;;;;5022527;28;20045;-67
2022/06/02 01:23:24;;;;;;;9.55;6.10;;;9.30;99.90;;;;;;5020131;28;20395;-67
2022/06/02 01:26:25;;;;;;;9.43;5.50;;;9.30;99.90;;;;;;5016287;28;20048;-68
2022/06/02 01:31:43;;;;;;;11.15;6.88;;;9.20;99.90;;;;;;5053903;28;20518;-68
2022/06/02 01:34:12;;;;;;;9.57;6.43;;;9.20;99.90;;;;;;5035153;28;20040;-68
2022/06/02 01:37:12;;;;;;;9.73;6.15;;;9.20;99.90;;;;;;5058857;28;20115;-68
2022/06/02 01:39:51;;;;;;;9.48;6.18;;;9.20;99.90;;;;;;5041969;28;20431;-68
2022/06/02 01:42:29;;;;;;;7.93;5.57;;;9.10;99.90;;;;;;5019717;28;20127;-68
2022/06/02 01:45:24;;;;;;;8.15;5.68;;;9.20;99.90;;;;;;5014681;28;20160;-68
2022/06/02 01:48:10;;;;;;;10.20;6.22;;;9.10;99.90;;;;;;5025173;28;20516;-68
2022/06/02 01:50:46;;;;;;;8.70;5.47;;;9.10;99.90;;;;;;5021968;28;20194;-68
2022/06/02 01:53:19;;;;;;;9.02;5.38;;;9.10;99.90;;;;;;5024424;28;20068;-68
2022/06/02 01:55:52;;;;;;;9.27;6.05;;;9.10;99.90;;;;;;5027102;28;20397;-68
2022/06/02 01:58:32;;;;;;;9.50;5.60;;;9.10;99.90;;;;;;5027909;28;20049;-69
2022/06/02 02:01:15;;;;;;;10.82;5.75;;;9.10;99.90;;;;;;5040441;28;20045;-68
2022/06/02 02:04:09;;;;;;;9.25;5.57;;;9.00;99.90;;;;;;5042458;28;20143;-68
2022/06/02 02:07:12;;;;;;;9.90;6.18;;;9.00;99.90;;;;;;5038223;28;20146;-68
2022/06/02 02:10:02;;;;;;;8.90;5.95;;;9.00;99.90;;;;;;5022261;28;20531;-68
2022/06/02 02:12:54;;;;;;;10.43;6.15;;;9.00;99.90;;;;;;5014201;28;20051;-68
2022/06/02 02:15:44;;;;;;;9.27;6.00;;;9.00;99.90;;;;;;5035507;28;20099;-68
2022/06/02 02:18:21;;;;;;;10.10;5.97;;;9.00;99.90;;;;;;5040501;28;20138;-68
2022/06/02 02:21:00;;;;;;;10.25;5.70;;;9.00;99.90;;;;;;5040569;28;20067;-68
2022/06/02 02:23:35;;;;;;;10.13;5.70;;;8.90;99.90;;;;;;5021978;28;20389;-68
2022/06/02 02:26:15;;;;;;;9.50;5.38;;;9.00;99.90;;;;;;5020864;28;20485;-68
2022/06/02 02:29:14;;;;;;;6.60;4.50;;;8.90;99.90;;;;;;5022446;28;20072;-68
2022/06/02 02:31:49;;;;;;;9.57;5.15;;;8.90;99.90;;;;;;5021741;28;20040;-68
2022/06/02 02:34:43;;;;;;;10.43;4.85;;;8.90;99.90;;;;;;5044284;28;20041;-68
2022/06/02 02:37:33;;;;;;;7.63;4.60;;;8.90;99.90;;;;;;5044656;28;20047;-68
2022/06/02 02:40:27;;;;;;;8.27;5.03;;;8.90;99.90;;;;;;5043789;28;20037;-68
2022/06/02 02:43:19;;;;;;;8.82;5.40;;;8.80;99.90;;;;;;5013243;28;20129;-68
2022/06/02 02:46:06;;;;;;;7.43;4.65;;;8.80;99.90;;;;;;5019598;28;20063;-68
2022/06/02 02:49:04;;;;;;;8.02;4.22;;;8.80;99.90;;;;;;5044083;28;20033;-69
2022/06/02 02:51:30;;;;;;;8.20;4.63;;;8.80;99.90;;;;;;5045116;28;20140;-68
2022/06/02 02:53:55;;;;;;;7.60;4.30;;;8.70;99.90;;;;;;5041453;28;20559;-68
2022/06/02 02:56:45;;;;;;;8.70;5.33;;;8.80;99.90;;;;;;5034880;28;20321;-68
2022/06/02 02:59:19;;;;;;;8.35;4.93;;;8.70;99.90;;;;;;5027026;28;20045;-68
2022/06/02 03:01:54;;;;;;;7.22;4.63;;;8.70;99.90;;;;;;5020038;28;20435;-68
2022/06/02 03:04:48;;;;;;;6.80;4.68;;;8.70;99.90;;;;;;5042391;28;20044;-68
2022/06/02 03:07:13;;;;;;;6.85;4.07;;;8.70;99.90;;;;;;5025496;28;20091;-68
2022/06/02 03:09:57;;;;;;;7.17;4.17;;;8.70;99.90;;;;;;5041389;28;20080;-68
2022/06/02 03:12:37;;;;;;;7.10;4.55;;;8.60;99.90;;;;;;5044331;28;20041;-68
2022/06/02 03:15:16;;;;;;;7.03;4.70;;;8.60;99.90;;;;;;5039632;28;20048;-69
2022/06/02 03:18:29;;;;;;;6.93;4.15;;;8.60;99.90;;;;;;5035314;28;20056;-68
2022/06/02 03:21:14;;;;;;;7.43;4.70;;;8.60;99.90;;;;;;5001115;28;20056;-68
2022/06/02 03:23:56;;;;;;;6.50;4.38;;;8.60;99.90;;;;;;5035633;28;20067;-68
2022/06/02 03:26:39;;;;;;;7.97;5.10;;;8.60;99.90;;;;;;5042562;28;20136;-68
2022/06/02 03:29:36;;;;;;;5.97;4.35;;;8.60;99.90;;;;;;5040908;28;20049;-68
2022/06/02 03:32:05;;;;;;;7.70;4.53;;;8.60;99.90;;;;;;5020192;28;20052;-68
2022/06/02 03:34:31;;;;;;;6.32;4.30;;;8.60;99.90;;;;;;5016126;28;20156;-68
2022/06/02 03:37:08;;;;;;;8.83;4.30;;;8.50;99.90;;;;;;5043034;28;20063;-67
2022/06/02 03:39:42;;;;;;;6.05;3.85;;;8.50;99.90;;;;;;5044448;28;20048;-68
2022/06/02 03:42:38;;;;;;;7.38;4.65;;;8.50;99.90;;;;;;5039287;28;20072;-68
2022/06/02 03:45:46;;;;;;;5.75;3.75;;;8.50;99.90;;;;;;5038725;28;20041;-68
2022/06/02 03:48:42;;;;;;;8.93;4.63;;;8.60;99.90;;;;;;4995160;28;20312;-68
2022/06/02 03:51:38;;;;;;;7.40;4.90;;;8.50;99.90;;;;;;5020586;28;20346;-68
2022/06/02 03:54:04;;;;;;;6.45;4.10;;;8.60;99.90;;;;;;5041398;28;20033;-68
2022/06/02 03:56:36;;;;;;;10.70;4.40;;;8.70;99.90;;;;;;5038597;28;20064;-68
2022/06/02 03:59:15;;;;;;;6.60;4.47;;;8.70;99.90;;;;;;5044964;28;20041;-70
2022/06/02 04:01:45;;;;;;;7.03;4.68;;;8.70;99.90;;;;;;5022485;28;20089;-69
2022/06/02 04:04:48;;;;;;;7.57;4.75;;;8.70;99.90;;;;;;5043933;28;20195;-68
2022/06/02 04:07:26;;;;;;;8.88;4.88;;;8.80;99.90;;;;;;5021899;28;20049;-69
2022/06/02 04:10:11;;;;;;;8.82;5.43;;;8.80;99.90;;;;;;5041451;28;20252;-68
2022/06/02 04:16:21;;;;;;;7.35;4.90;;;8.90;99.90;;;;;;5026467;28;20426;-68
2022/06/02 04:18:53;;;;;;;7.90;5.38;;;9.00;99.90;;;;;;5025462;28;20037;-68
2022/06/02 04:21:50;;;;;;;10.95;5.63;;;9.00;99.90;;;;;;5036627;28;20503;-69
2022/06/02 04:24:49;;;;;;;12.43;5.32;;;9.00;99.90;;;;;;5039846;28;20046;-68
2022/06/02 04:27:42;;;;;;;8.48;5.68;;;9.10;99.90;;;;;;4993872;28;20804;-68
2022/06/02 04:30:14;;;;;;;10.95;5.45;;;9.20;99.90;;;;;;5035266;28;20052;-68
2022/06/02 04:32:55;;;;;;;8.05;4.93;;;9.20;99.90;;;;;;5039977;28;20033;-68
2022/06/02 04:36:01;;;;;;;8.38;4.78;;;9.20;99.90;;;;;;5019920;28;20486;-71
2022/06/02 04:38:44;;;;;;;10.15;5.70;;;9.30;99.90;;;;;;5018633;28;20060;-69
2022/06/02 04:41:15;;;;;;;8.43;4.93;;;9.40;99.90;;;;;;5039651;28;20052;-68
2022/06/02 04:44:07;;;;;;;8.30;5.55;;;9.40;99.90;;;;;;5006108;28;20461;-68
2022/06/02 04:46:41;;;;;;;7.50;4.38;;;9.50;99.90;;;;;;5013810;28;20106;-68
2022/06/02 04:49:35;;;;;;;6.60;4.00;;;9.50;99.90;;;;;;5022402;28;20048;-68
2022/06/02 04:52:13;;;;;;;5.55;3.90;;;9.60;99.90;;;;;;5031179;28;20078;-68
2022/06/02 04:54:44;;;;;;;8.65;4.35;;;9.60;99.90;;;;;;5032869;28;20060;-68
2022/06/02 04:57:38;;;;;;;6.38;3.60;;;9.70;99.90;;;;;;5035092;28;20192;-69
2022/06/02 05:00:22;;;;;;;8.15;4.03;;;9.80;99.90;;;;;;5000210;28;20045;-68
2022/06/02 05:02:56;;;;;;;6.82;3.80;;;9.80;99.90;;;;;;5037615;28;20913;-69
2022/06/02 05:05:31;;;;;;;6.70;4.07;;;9.90;99.90;;;;;;5033973;28;20047;-69
2022/06/02 05:08:17;;;;;;;6.25;4.15;;;9.90;99.90;;;;;;5020054;28;20045;-69
2022/06/02 05:11:07;;;;;;;4.97;3.35;;;10.00;99.90;;;;;;5043596;28;20722;-69
2022/06/02 05:14:10;;;;;;;5.22;3.10;;;10.00;99.90;;;;;;5002832;28;20441;-69
2022/06/02 05:16:59;;;;;;;6.97;3.10;;;10.10;99.90;;;;;;5032682;28;20039;-69
2022/06/02 05:19:43;;;;;;;6.50;2.97;;;10.20;99.90;;;;;;5007535;28;20251;-68
2022/06/02 05:22:39;;;;;;;4.93;2.90;;;10.20;99.90;;;;;;5033666;28;23931;-69
2022/06/02 05:25:39;;;;;;;7.30;4.15;;;10.30;99.90;;;;;;5036346;28;20037;-69
2022/06/02 05:28:13;;;;;;;8.60;3.83;;;10.30;99.90;;;;;;5038301;28;20045;-68
2022/06/02 05:31:10;;;;;;;5.53;3.38;;;10.40;99.90;;;;;;5036968;28;20102;-68
2022/06/02 05:33:51;;;;;;;5.93;2.80;;;10.50;99.90;;;;;;5034104;28;20044;-68
2022/06/02 05:36:50;;;;;;;5.47;3.20;;;10.50;99.90;;;;;;5035621;28;20037;-68
2022/06/02 05:39:38;;;;;;;8.38;3.30;;;10.60;99.90;;;;;;5011717;28;20116;-68
2022/06/02 05:42:37;;;;;;;5.82;3.45;;;10.60;99.90;;;;;;5020115;28;20045;-70
2022/06/02 05:45:15;;;;;;;5.15;3.20;;;10.60;99.90;;;;;;5019155;28;20212;-69
2022/06/02 05:48:00;;;;;;;5.00;3.30;;;10.70;99.90;;;;;;5018273;28;20397;-69
2022/06/02 05:50:48;;;;;;;5.25;3.33;;;10.70;99.90;;;;;;5038933;28;20317;-71
2022/06/02 05:53:37;;;;;;;4.88;3.10;;;10.80;99.90;;;;;;5045352;28;20041;-70
2022/06/02 05:56:14;;;;;;;3.92;2.75;;;10.90;99.90;;;;;;5040089;28;20493;-70
2022/06/02 05:59:03;;;;;;;6.10;2.53;;;10.90;99.90;;;;;;5039082;28;20078;-70
2022/06/02 06:01:47;;;;;;;3.35;2.08;;;11.00;99.90;;;;;;5024070;28;20060;-69
2022/06/02 06:04:36;;;;;;;3.20;2.13;;;11.10;99.90;;;;;;5019174;28;20382;-69
2022/06/02 06:07:18;;;;;;;3.13;2.08;;;11.20;99.90;;;;;;5021735;28;20044;-71
2022/06/02 06:09:50;;;;;;;2.83;1.80;;;11.20;99.90;;;;;;5051824;28;20045;-72
2022/06/02 06:12:25;;;;;;;3.95;1.75;;;11.40;99.90;;;;;;5022757;28;20436;-69
2022/06/02 06:15:03;;;;;;;4.22;1.90;;;11.40;99.90;;;;;;5029701;28;20405;-69
2022/06/02 06:18:16;;;;;;;1.60;1.10;;;11.50;99.90;;;;;;5035521;28;20125;-68
2022/06/02 06:21:15;;;;;;;2.75;1.55;;;11.60;99.90;;;;;;4970420;28;20046;-69
2022/06/02 06:24:03;;;;;;;4.10;1.70;;;11.60;99.90;;;;;;5039211;28;20061;-69
2022/06/02 06:26:52;;;;;;;3.67;1.45;;;11.60;99.90;;;;;;5000348;28;20072;-69
2022/06/02 06:29:43;;;;;;;2.42;1.23;;;11.60;99.90;;;;;;5036609;28;20046;-68
2022/06/02 06:32:08;;;;;;;3.08;1.50;;;11.70;99.90;;;;;;5021412;28;20050;-69
2022/06/02 06:35:16;;;;;;;3.33;1.60;;;11.70;99.90;;;;;;5025845;28;20053;-69
2022/06/02 06:37:59;;;;;;;2.08;1.40;;;11.80;99.90;;;;;;5030816;28;20037;-69
2022/06/02 06:40:28;;;;;;;4.57;1.42;;;11.90;99.90;;;;;;5029325;28;20124;-69
2022/06/02 06:43:11;;;;;;;2.85;1.55;;;11.90;99.90;;;;;;5017962;28;20072;-69
2022/06/02 06:46:20;;;;;;;2.25;1.38;;;12.00;99.90;;;;;;5024783;28;20060;-68
2022/06/02 06:48:49;;;;;;;;;;;12.10;99.90;;;;;;5012404;28;20087;-69
2022/06/02 06:51:35;;;;;;;2.65;1.35;;;12.20;99.90;;;;;;5041454;28;20381;-68
2022/06/02 06:54:19;;;;;;;4.25;1.90;;;12.20;99.90;;;;;;5016207;28;20053;-69
2022/06/02 06:56:52;;;;;;;4.85;1.70;;;12.30;99.90;;;;;;5027122;28;20746;-69
2022/06/02 06:59:36;;;;;;;2.33;0.95;;;12.40;99.90;;;;;;5012248;28;20163;-69
2022/06/02 07:02:26;;;;;;;1.98;1.17;;;12.40;99.90;;;;;;5018572;28;20382;-69
2022/06/02 07:05:01;;;;;;;2.83;1.00;;;12.50;99.90;;;;;;5024489;28;20045;-69
2022/06/02 07:07:46;;;;;;;2.20;1.38;;;12.50;99.90;;;;;;5034842;28;20049;-69
2022/06/02 07:10:35;;;;;;;2.97;2.10;;;12.60;99.90;;;;;;5042246;28;20053;-69
2022/06/02 07:13:28;;;;;;;2.35;1.10;;;12.50;99.90;;;;;;5044801;28;20154;-69
2022/06/02 07:16:17;;;;;;;2.08;1.15;;;12.50;99.90;;;;;;5036195;28;20120;-69
2022/06/02 07:19:16;;;;;;;3.35;1.15;;;12.50;99.90;;;;;;5024510;28;20592;-69
2022/06/02 07:21:42;;;;;;;4.50;1.27;;;12.50;99.90;;;;;;5043587;28;20055;-69
2022/06/02 07:24:26;;;;;;;4.30;1.00;;;12.50;99.90;;;;;;5034369;28;20412;-69
2022/06/02 07:26:55;;;;;;;1.48;0.85;;;12.50;99.90;;;;;;5024204;28;20124;-69
2022/06/02 07:32:33;;;;;;;1.95;0.95;;;12.80;99.90;;;;;;5061664;28;20412;-67
2022/06/02 07:35:35;;;;;;;3.88;0.90;;;12.90;99.90;;;;;;5048928;28;20485;-67
2022/06/02 07:38:23;;;;;;;2.03;1.08;;;12.90;99.90;;;;;;5046423;28;20040;-67
2022/06/02 07:40:55;;;;;;;2.42;0.90;;;12.90;99.90;;;;;;5045418;28;20052;-67
2022/06/02 07:43:47;;;;;;;3.70;1.30;;;12.90;99.90;;;;;;5046021;28;20106;-68
2022/06/02 07:46:29;;;;;;;1.83;0.85;;;12.90;99.90;;;;;;5044154;28;20528;-67
2022/06/02 07:49:06;;;;;;;1.73;0.90;;;12.90;99.90;;;;;;5026705;28;20493;-67
2022/06/02 07:51:52;;;;;;;2.47;1.30;;;13.10;99.90;;;;;;5045874;28;20405;-67
2022/06/02 07:54:25;;;;;;;2.92;1.10;;;13.10;99.90;;;;;;5048309;28;20367;-67
2022/06/02 07:57:07;;;;;;;1.70;0.77;;;13.20;99.90;;;;;;5058886;28;20041;-67
2022/06/02 07:59:54;;;;;;;3.00;1.02;;;13.20;99.90;;;;;;5031032;28;20095;-67
2022/06/02 08:03:08;;;;;;;3.03;1.08;;;13.30;99.90;;;;;;5042807;28;20045;-67
2022/06/02 08:05:46;;;;;;;3.45;1.23;;;13.40;99.90;;;;;;5050559;28;20501;-69
2022/06/02 08:08:44;;;;;;;1.90;0.85;;;13.50;99.90;;;;;;5040573;28;20188;-68
2022/06/02 08:11:42;;;;;;;1.92;0.98;;;13.50;99.90;;;;;;5038168;28;20053;-69
2022/06/02 08:14:10;;;;;;;1.98;1.10;;;13.60;99.90;;;;;;5036048;28;20486;-68
2022/06/02 08:16:39;;;;;;;3.03;1.10;;;13.60;99.90;;;;;;5039721;28;20164;-68
2022/06/02 08:19:23;;;;;;;3.38;0.85;;;13.80;99.90;;;;;;5046432;28;20068;-68
2022/06/02 08:21:55;;;;;;;2.72;0.90;;;13.80;99.90;;;;;;5055859;28;20041;-68
2022/06/02 08:24:49;;;;;;;1.80;1.08;;;13.80;99.90;;;;;;5042292;28;20567;-68
2022/06/02 08:27:24;;;;;;;4.13;1.00;;;13.80;99.90;;;;;;5043959;28;20134;-68
2022/06/02 08:30:00;;;;;;;2.60;1.23;;;13.80;99.90;;;;;;5046539;28;20132;-68
2022/06/02 08:32:53;;;;;;;2.85;0.82;;;13.80;99.90;;;;;;5042262;28;20048;-68
2022/06/02 08:35:31;;;;;;;2.13;0.98;;;13.80;99.90;;;;;;5040121;28;20053;-69
2022/06/02 08:38:29;;;;;;;3.67;1.23;;;13.90;99.90;;;;;;5051276;28;20488;-68
2022/06/02 08:41:29;;;;;;;3.10;1.05;;;14.10;99.90;;;;;;5045370;28;20053;-68
2022/06/02 08:44:07;;;;;;;1.45;0.80;;;14.20;99.90;;;;;;5046602;28;20045;-69
2022/06/02 08:47:03;;;;;;;1.95;1.13;;;14.30;99.90;;;;;;5040845;28;20037;-68
2022/06/02 08:50:10;;;;;;;2.38;1.13;;;14.30;99.90;;;;;;5048467;28;20057;-68
2022/06/02 08:52:39;;;;;;;2.58;1.27;;;14.40;99.90;;;;;;5026097;28;20044;-69
2022/06/02 08:55:59;;;;;;;2.50;0.98;;;14.30;99.90;;;;;;5045244;28;20125;-68
2022/06/02 08:58:52;;;;;;;1.73;1.00;;;14.30;99.90;;;;;;4948046;28;20137;-69
2022/06/02 09:01:39;;;;;;;3.28;0.85;;;14.30;99.90;;;;;;5044872;28;20446;-68
2022/06/02 09:04:11;;;;;;;;;;;14.30;99.90;;;;;;5043206;28;20372;-68
2022/06/02 09:07:10;;;;;;;3.05;1.10;;;14.40;99.90;;;;;;5038074;28;19970;-68
2022/06/02 09:09:39;;;;;;;2.35;1.20;;;14.50;99.90;;;;;;5043660;28;20271;-68
2022/06/02 09:12:16;;;;;;;2.08;0.98;;;14.60;99.90;;;;;;5036009;28;20040;-68
2022/06/02 09:15:08;;;;;;;1.30;0.88;;;14.80;99.90;;;;;;5031560;28;20527;-68
2022/06/02 09:18:09;;;;;;;2.20;1.10;;;14.90;99.90;;;;;;5037212;28;20036;-68
2022/06/02 09:20:35;;;;;;;1.85;1.00;;;15.00;99.90;;;;;;5034607;28;20361;-69
2022/06/02 09:23:07;;;;;;;7.63;1.58;;;15.00;99.90;;;;;;5025809;28;20282;-68
2022/06/02 09:25:38;;;;;;;3.38;1.02;;;14.90;99.90;;;;;;5039853;28;20226;-69
2022/06/02 09:28:29;;;;;;;2.20;1.20;;;14.90;99.90;;;;;;5039242;28;20159;-68
2022/06/02 09:31:16;;;;;;;4.07;1.02;;;14.90;99.90;;;;;;5035421;28;20033;-68
2022/06/02 09:33:52;;;;;;;1.27;0.85;;;15.00;99.90;;;;;;5039957;28;20089;-68
2022/06/02 09:36:36;;;;;;;2.85;0.93;;;15.20;99.90;;;;;;5041350;28;20418;-68
2022/06/02 09:39:30;;;;;;;2.70;0.90;;;15.30;99.90;;;;;;5034035;28;20051;-69
2022/06/02 09:42:04;;;;;;;1.92;1.10;;;15.40;99.90;;;;;;5036265;28;20076;-68
2022/06/02 09:45:07;;;;;;;1.65;0.73;;;15.40;99.90;;;;;;5030364;28;20309;-69
2022/06/02 09:48:17;;;;;;;1.25;0.70;;;15.40;99.90;;;;;;5039708;28;20439;-68
2022/06/02 09:51:00;;;;;;;2.00;0.82;;;15.50;99.90;;;;;;4967774;28;20039;-68
2022/06/02 09:53:29;;;;;;;7.82;1.42;;;15.50;99.90;;;;;;4980458;28;20046;-68
2022/06/02 09:56:09;;;;;;;2.03;1.02;;;15.60;99.90;;;;;;5013714;28;20616;-68
2022/06/02 09:58:49;;;;;;;2.00;0.90;;;15.70;99.90;;;;;;5040590;28;20383;-68
2022/06/02 10:01:25;;;;;;;1.75;1.00;;;15.80;99.90;;;;;;5045167;28;20045;-69
2022/06/02 10:04:07;;;;;;;3.05;0.98;;;16.00;99.90;;;;;;5047850;28;20168;-68
2022/06/02 10:07:04;;;;;;;2.22;1.63;;;16.20;99.90;;;;;;5035322;28;20517;-68
2022/06/02 10:10:01;;;;;;;1.63;0.70;;;16.30;99.90;;;;;;5039044;28;20067;-68
2022/06/02 10:12:54;;;;;;;5.25;1.08;;;16.40;99.90;;;;;;5040323;28;20037;-68
2022/06/02 10:15:26;;;;;;;1.70;1.02;;;16.30;99.90;;;;;;5039230;28;20179;-68
2022/06/02 10:17:58;;;;;;;2.00;0.80;;;16.40;99.90;;;;;;5031873;28;20041;-69
2022/06/02 10:20:53;;;;;;;1.20;0.63;;;16.40;99.90;;;;;;5047805;28;20095;-68
2022/06/02 10:23:56;;;;;;;2.88;0.90;;;16.40;99.90;;;;;;5036837;28;20071;-69
2022/06/02 10:26:56;;;;;;;5.07;1.35;;;16.40;99.90;;;;;;5035972;28;20037;-69
2022/06/02 10:29:56;;;;;;;2.15;1.02;;;16.30;99.90;;;;;;5043400;28;20652;-69
2022/06/02 10:32:47;;;;;;;6.60;1.10;;;16.20;99.90;;;;;;5047392;28;20435;-68
2022/06/02 10:35:51;;;;;;;2.03;1.13;;;16.20;99.90;;;;;;5045702;28;20123;-69
2022/06/02 10:38:26;;;;;;;2.00;1.00;;;16.20;99.90;;;;;;5045230;28;20501;-69
2022/06/02 10:41:25;;;;;;;2.55;1.10;;;16.20;99.90;;;;;;5048079;28;20041;-69
2022/06/02 10:44:02;;;;;;;1.33;0.68;;;16.10;99.90;;;;;;5032210;28;20067;-69
2022/06/02 10:47:09;;;;;;;3.25;1.00;;;16.10;99.90;;;;;;5033816;28;20054;-69
2022/06/02 10:49:53;;;;;;;2.30;1.10;;;16.10;99.90;;;;;;5047184;28;20143;-69
2022/06/02 10:52:56;;;;;;;1.23;0.85;;;16.10;99.90;;;;;;5048970;28;20110;-68
2022/06/02 10:55:59;;;;;;;3.75;1.27;;;16.10;99.90;;;;;;5043603;28;20029;-68
2022/06/02 10:58:50;;;;;;;2.10;1.17;;;16.10;99.90;;;;;;5042457;28;20037;-68
2022/06/02 11:01:53;;;;;;;3.10;1.05;;;16.10;99.90;;;;;;5041866;28;20498;-69
2022/06/02 11:04:39;;;;;;;1.52;0.73;;;16.00;99.90;;;;;;5050289;28;20052;-68
2022/06/02 11:07:39;;;;;;;1.70;0.88;;;16.00;99.90;;;;;;4992694;28;20244;-69
2022/06/02 11:10:26;;;;;;;4.25;0.80;;;16.10;99.90;;;;;;5041497;28;20067;-69
2022/06/02 11:13:26;;;;;;;2.20;1.00;;;16.40;99.90;;;;;;5040010;28;20037;-68
2022/06/02 11:16:30;;;;;;;1.52;1.02;;;16.60;99.90;;;;;;5038818;28;20492;-69
2022/06/02 11:19:24;;;;;;;0.95;0.68;;;16.70;99.90;;;;;;5011507;28;20049;-68
2022/06/02 11:22:05;;;;;;;2.63;1.13;;;16.70;99.90;;;;;;5040359;28;20470;-69
2022/06/02 11:24:59;;;;;;;2.33;1.17;;;16.70;99.90;;;;;;5041806;28;20098;-69
2022/06/02 11:27:58;;;;;;;2.83;0.90;;;16.70;99.90;;;;;;5036811;28;20128;-68
2022/06/02 11:30:38;;;;;;;1.55;0.90;;;16.70;99.90;;;;;;5039738;28;20049;-68
2022/06/02 11:33:22;;;;;;;2.08;0.65;;;16.70;99.90;;;;;;5036730;28;20040;-69
2022/06/02 11:36:10;;;;;;;2.17;1.00;;;16.60;99.90;;;;;;5046143;28;20041;-69
2022/06/02 11:38:56;;;;;;;1.15;0.73;;;16.60;99.90;;;;;;5040383;28;20114;-68
2022/06/02 11:41:36;;;;;;;1.73;0.95;;;16.70;99.90;;;;;;5039139;28;20052;-69
2022/06/02 11:44:20;;;;;;;2.90;0.80;;;16.90;99.90;;;;;;5045151;28;20037;-69
2022/06/02 11:47:19;;;;;;;2.50;0.75;;;16.90;99.90;;;;;;5040492;28;20037;-68
2022/06/02 11:49:53;;;;;;;3.17;1.05;;;17.10;99.90;;;;;;5047478;28;20037;-68
2022/06/02 11:52:51;;;;;;;2.80;0.85;;;17.30;99.90;;;;;;5052564;28;20051;-68
2022/06/02 11:55:30;;;;;;;2.55;1.10;;;17.50;99.90;;;;;;5042243;28;20052;-69
2022/06/02 11:58:24;;;;;;;1.98;0.90;;;17.50;99.90;;;;;;5040719;28;20501;-69
2022/06/02 12:01:13;;;;;;;2.10;1.13;;;17.40;99.90;;;;;;5044667;28;20043;-69
2022/06/02 12:04:02;;;;;;;1.58;0.95;;;17.50;99.90;;;;;;5043150;28;20453;-69
2022/06/02 12:06:46;;;;;;;1.83;1.00;;;17.30;99.90;;;;;;5055889;28;20033;-69
2022/06/02 12:09:33;;;;;;;1.42;0.80;;;17.20;99.90;;;;;;5030998;28;20033;-68
2022/06/02 12:12:11;;;;;;;2.25;0.90;;;17.30;99.90;;;;;;5037932;28;20040;-68
2022/06/02 12:15:02;;;;;;;4.30;1.10;;;17.50;99.90;;;;;;5029809;28;20060;-68
2022/06/02 12:18:00;;;;;;;2.67;0.88;;;17.70;99.90;;;;;;5034321;28;20037;-68
2022/06/02 12:20:25;;;;;;;3.63;0.95;;;17.90;99.90;;;;;;5043616;28;20033;-69
2022/06/02 12:22:54;;;;;;;1.95;1.08;;;18.10;99.90;;;;;;5044329;28;20379;-69
2022/06/02 12:25:22;;;;;;;2.85;1.08;;;18.30;99.90;;;;;;5042086;28;20041;-69
2022/06/02 12:28:25;;;;;;;1.98;1.02;;;18.40;99.90;;;;;;5048731;28;20504;-69
2022/06/02 12:31:13;;;;;;;1.73;0.80;;;18.50;99.90;;;;;;5045666;28;20291;-69
2022/06/02 12:33:53;;;;;;;;;;;18.50;99.90;;;;;;5043424;28;20076;-68
2022/06/02 12:36:40;;;;;;;2.22;1.00;;;18.60;99.90;;;;;;5041979;28;19924;-69
2022/06/02 12:39:43;;;;;;;1.25;0.63;;;18.70;99.90;;;;;;5043812;28;20112;-69
2022/06/02 12:42:30;;;;;;;1.58;0.85;;;18.80;99.90;;;;;;5033792;28;20057;-70
2022/06/02 12:45:14;;;;;;;1.55;0.85;;;18.90;99.90;;;;;;5044344;28;20048;-69
2022/06/02 12:47:54;;;;;;;2.55;0.90;;;19.10;99.90;;;;;;5042791;28;20399;-70
2022/06/02 12:50:27;;;;;;;2.17;1.00;;;19.30;99.90;;;;;;5046883;28;20055;-69
2022/06/02 12:52:58;;;;;;;3.05;1.05;;;19.50;99.90;;;;;;5047018;28;20098;-69
2022/06/02 12:55:34;;;;;;;2.55;0.77;;;19.50;99.90;;;;;;5043906;28;20128;-69
2022/06/02 12:58:36;;;;;;;1.50;0.75;;;19.60;99.90;;;;;;5043455;28;20051;-69
2022/06/02 13:01:13;;;;;;;2.80;1.27;;;19.40;99.90;;;;;;5020194;28;20045;-68
2022/06/02 13:04:00;;;;;;;1.70;0.90;;;19.30;99.90;;;;;;5038611;28;20072;-69
2022/06/02 13:06:47;;;;;;;1.52;0.82;;;19.20;99.90;;;;;;5040843;28;20132;-68
2022/06/02 13:09:35;;;;;;;1.17;0.97;;;19.00;99.90;;;;;;5054888;28;20078;-69
2022/06/02 13:12:24;;;;;;;1.90;0.90;;;18.80;99.90;;;;;;5039355;28;20569;-68
2022/06/02 13:15:20;;;;;;;2.28;1.13;;;18.70;99.90;;;;;;5022054;28;20139;-68
2022/06/02 13:18:25;;;;;;;2.20;0.90;;;18.60;99.90;;;;;;5039113;28;20047;-69
2022/06/02 13:20:56;;;;;;;1.60;1.15;;;18.40;99.90;;;;;;5040288;28;20037;-69
2022/06/02 13:23:43;;;;;;;1.83;0.90;;;18.20;99.90;;;;;;5045914;28;20504;-68
2022/06/02 13:26:29;;;;;;;1.25;0.70;;;18.20;99.90;;;;;;5038906;28;20036;-68
2022/06/02 13:29:03;;;;;;;4.30;0.95;;;18.10;99.90;;;;;;5043262;28;20044;-69
2022/06/02 13:31:57;;;;;;;3.05;0.85;;;18.00;99.90;;;;;;5047777;23;20131;-68
2022/06/02 13:34:29;;;;;;;2.45;0.70;;;18.00;99.90;;;;;;5037060;28;20037;-68
2022/06/02 13:37:04;;;;;;;3.40;1.10;;;18.00;99.90;;;;;;5028734;28;20044;-68
2022/06/02 13:39:54;;;;;;;1.70;1.02;;;17.90;99.90;;;;;;5000550;28;20540;-68
2022/06/02 13:42:35;;;;;;;2.22;0.88;;;17.90;99.90;;;;;;5001824;28;20045;-68
2022/06/02 13:45:38;;;;;;;4.25;1.30;;;17.80;99.90;;;;;;5004912;28;20057;-68
2022/06/02 13:48:50;;;;;;;1.83;0.88;;;17.90;99.90;;;;;;5017838;28;20058;-68
2022/06/02 13:51:16;;;;;;;1.58;0.82;;;18.10;99.90;;;;;;5008951;28;20053;-69
2022/06/02 14:00:17;;;;;;;2.20;1.25;;;18.80;99.90;;;;;;5015667;28;20601;-68
2022/06/02 14:03:01;;;;;;;1.00;0.70;;;18.90;99.90;;;;;;5023325;28;20049;-68
2022/06/02 14:05:53;;;;;;;1.15;0.65;;;19.00;99.90;;;;;;5022586;28;20050;-68
2022/06/02 14:08:24;;;;;;;0.95;0.70;;;19.10;99.90;;;;;;5004435;28;20080;-68
2022/06/02 14:11:18;;;;;;;2.22;0.80;;;19.30;99.90;;;;;;5018718;28;20037;-67
2022/06/02 14:13:44;;;;;;;1.23;0.77;;;19.50;99.10;;;;;;5001489;28;20485;-68
2022/06/02 14:16:20;;;;;;;2.05;0.95;;;19.50;99.90;;;;;;5031011;28;20367;-67
2022/06/02 14:19:11;;;;;;;1.63;1.10;;;19.70;99.90;;;;;;5024493;28;20181;-68
2022/06/02 14:21:49;;;;;;;1.35;0.73;;;19.80;99.90;;;;;;5004262;28;20046;-68
2022/06/02 14:24:27;;;;;;;1.65;0.82;;;20.00;99.90;;;;;;5001605;28;20037;-68
2022/06/02 14:27:15;;;;;;;1.13;0.63;;;20.00;99.80;;;;;;4996738;28;20444;-67
2022/06/02 14:30:12;;;;;;;1.63;0.93;;;19.90;98.80;;;;;;5008969;28;20049;-68
2022/06/02 14:32:58;;;;;;;2.25;1.02;;;19.60;91.20;;;;;;5012175;28;20247;-68
2022/06/02 14:35:46;;;;;;;1.10;0.60;;;19.30;99.40;;;;;;5012660;28;20367;-68
2022/06/02 14:38:15;;;;;;;1.10;0.65;;;19.20;99.90;;;;;;5013778;28;20338;-67
2022/06/02 14:40:50;;;;;;;0.65;0.60;;;19.10;99.90;;;;;;5021114;28;20041;-68